Plymouth, ME (04969)

2:05 PM EDT on July 07, 2015 (GMT -0400)
APRSWXNET | | Change Station
CLOSE
Current Station
Personal Weather Station
Location: Plymouth, ME
Elevation: 316 ft
Nearby Weather Stations

Elev 316 ft 44.80 °N, 69.26 °W | Updated 30 minutes ago

Partly Cloudy
Partly Cloudy
80 °F
Feels Like 83 °F
N
6
Wind Variable Wind from SW
Gusts 16.0 mph

Today
High -- | Low -- °F
--% Chance of Precip.
Yesterday
High -- | Low -- °F
Precip. -- in
4:58 AM 8:24 PM
Waning Gibbous, 62% visible
Pressure 30.02 in
Visibility 10.0 miles
Clouds Few 6000 ft
Heat Index 83 °F
Dew Point 68 °F
Humidity 68%
Rainfall in
Snow Depth Not available.
UV 10 out of 12
Pollen 4.30 out of 12
Air Quality Not available.
Flu Activity Not available.
METAR KBGR 071753Z 17016KT 10SM FEW060 26/16 A3003 RMK AO2 PK WND 19029/1719 SLP165 T02610161 10272 20189 56018 $

More Conditions Fewer Conditions

Pressure 30.02 in
Visibility 10.0 miles
Clouds Few 6000 ft
Heat Index 83 °F
Dew Point 68 °F
Humidity 68%
Rainfall in
Snow Depth Not available.
UV 10 out of 12
Pollen 4.30 out of 12
Air Quality Not available.
Flu Activity Not available.
METAR KBGR 071753Z 17016KT 10SM FEW060 26/16 A3003 RMK AO2 PK WND 19029/1719 SLP165 T02610161 10272 20189 56018 $

More Conditions Fewer Conditions

10-Day Weather Forecast

×

Almanac

Astronomy

Jul. 07, 2015 Rise Set
Actual Time
Civil Twilight
Nautical Twilight
Astronomical Twilight
Moon
Length of Visible Light
Length of Day
Tomorrow will be .
, % of the Moon is Illuminated

Today's Extremes

State Highs State Lows

Community

WunderPhotos

Upload Photos

1,835,860 photos uploaded!

WunderBlogs® & News

Nearby

Air Quality

  Air Quality AQ Index Pollutant
Not available.

Snow Depth

Station Depth Elevation

Earthquake Activity

City Distance Mag. Time & Date
Minimum magnitude displayed is 2.5.

Coastal Water Temperatures

Place Temperature

Stations

Nearby Weather Stations

Station Location Temp. Windchill Dew Point Humidity Wind Precip. Elev Updated Type